sensor_id;sensor_type;location;lat;lon;timestamp;pressure;altitude;pressure_sealevel;temperature;humidity
68758;BME280;55747;51.998;4.466;2022-07-29T00:00:18;77931.38;;;-144.48;55.60
68758;BME280;55747;51.998;4.466;2022-07-29T00:02:43;77927.22;;;-144.48;55.46
68758;BME280;55747;51.998;4.466;2022-07-29T00:05:08;77933.47;;;-144.48;55.77
68758;BME280;55747;51.998;4.466;2022-07-29T00:07:34;77937.63;;;-144.48;56.02
68758;BME280;55747;51.998;4.466;2022-07-29T00:10:00;77937.63;;;-144.48;56.06
68758;BME280;55747;51.998;4.466;2022-07-29T00:12:25;77937.63;;;-144.48;56.15
68758;BME280;55747;51.998;4.466;2022-07-29T00:14:51;77943.84;;;-144.48;56.30
68758;BME280;55747;51.998;4.466;2022-07-29T00:17:17;77935.53;;;-144.48;56.14
68758;BME280;55747;51.998;4.466;2022-07-29T00:19:42;77945.94;;;-144.48;56.30
68758;BME280;55747;51.998;4.466;2022-07-29T00:22:08;77948.00;;;-144.48;56.52
68758;BME280;55747;51.998;4.466;2022-07-29T00:24:33;77952.16;;;-144.48;56.56
68758;BME280;55747;51.998;4.466;2022-07-29T00:26:58;77956.31;;;-144.48;56.50
68758;BME280;55747;51.998;4.466;2022-07-29T00:29:24;77958.41;;;-144.48;56.86
68758;BME280;55747;51.998;4.466;2022-07-29T00:31:49;77956.31;;;-144.48;56.77
68758;BME280;55747;51.998;4.466;2022-07-29T00:34:15;77956.31;;;-144.48;56.86
68758;BME280;55747;51.998;4.466;2022-07-29T00:36:59;77962.56;;;-144.48;57.19
68758;BME280;55747;51.998;4.466;2022-07-29T00:39:24;77958.41;;;-144.48;56.95
68758;BME280;55747;51.998;4.466;2022-07-29T00:41:50;77970.88;;;-144.48;57.36
68758;BME280;55747;51.998;4.466;2022-07-29T00:44:15;77962.56;;;-144.48;57.25
68758;BME280;55747;51.998;4.466;2022-07-29T00:46:41;77970.88;;;-144.48;57.47
68758;BME280;55747;51.998;4.466;2022-07-29T00:49:07;77968.81;;;-144.48;57.63
68758;BME280;55747;51.998;4.466;2022-07-29T00:51:34;77975.03;;;-144.48;57.68
68758;BME280;55747;51.998;4.466;2022-07-29T00:54:00;77970.88;;;-144.48;57.78
68758;BME280;55747;51.998;4.466;2022-07-29T00:56:26;77977.13;;;-144.48;57.87
68758;BME280;55747;51.998;4.466;2022-07-29T00:58:52;77975.03;;;-144.48;57.86
68758;BME280;55747;51.998;4.466;2022-07-29T01:01:18;77970.88;;;-144.48;58.14
68758;BME280;55747;51.998;4.466;2022-07-29T01:03:43;77968.81;;;-144.48;57.81
68758;BME280;55747;51.998;4.466;2022-07-29T01:06:09;77975.03;;;-144.48;58.08
68758;BME280;55747;51.998;4.466;2022-07-29T01:08:35;77975.03;;;-144.48;58.19
68758;BME280;55747;51.998;4.466;2022-07-29T01:11:01;77979.19;;;-144.48;58.24
68758;BME280;55747;51.998;4.466;2022-07-29T01:13:27;77975.03;;;-144.48;58.53
68758;BME280;55747;51.998;4.466;2022-07-29T01:15:57;77983.34;;;-144.48;58.54
68758;BME280;55747;51.998;4.466;2022-07-29T01:18:30;77975.03;;;-144.48;58.45
68758;BME280;55747;51.998;4.466;2022-07-29T01:21:20;77977.13;;;-144.48;58.63
68758;BME280;55747;51.998;4.466;2022-07-29T01:23:53;77989.59;;;-144.48;58.79
68758;BME280;55747;51.998;4.466;2022-07-29T01:29:29;77987.50;;;-144.48;58.99
68758;BME280;55747;51.998;4.466;2022-07-29T01:32:02;77979.19;;;-144.48;59.13
68758;BME280;55747;51.998;4.466;2022-07-29T01:34:48;77989.59;;;-144.48;59.11
68758;BME280;55747;51.998;4.466;2022-07-29T01:37:19;77991.66;;;-144.48;59.30
68758;BME280;55747;51.998;4.466;2022-07-29T01:39:49;77993.75;;;-144.48;59.64
68758;BME280;55747;51.998;4.466;2022-07-29T01:42:45;77995.81;;;-144.48;59.65
68758;BME280;55747;51.998;4.466;2022-07-29T01:45:19;77997.91;;;-144.48;59.61
68758;BME280;55747;51.998;4.466;2022-07-29T01:47:54;77993.75;;;-144.48;59.65
68758;BME280;55747;51.998;4.466;2022-07-29T01:50:25;77991.66;;;-144.48;59.72
68758;BME280;55747;51.998;4.466;2022-07-29T01:53:00;77987.50;;;-144.48;59.78
68758;BME280;55747;51.998;4.466;2022-07-29T01:55:32;77985.44;;;-144.48;59.75
68758;BME280;55747;51.998;4.466;2022-07-29T01:58:00;77975.03;;;-144.48;59.83
68758;BME280;55747;51.998;4.466;2022-07-29T02:00:29;77987.50;;;-144.48;59.89
68758;BME280;55747;51.998;4.466;2022-07-29T02:02:58;77975.03;;;-144.48;59.83
68758;BME280;55747;51.998;4.466;2022-07-29T02:05:26;77979.19;;;-144.48;59.94
68758;BME280;55747;51.998;4.466;2022-07-29T02:07:52;77989.59;;;-144.48;60.11
68758;BME280;55747;51.998;4.466;2022-07-29T02:10:22;77987.50;;;-144.48;60.06
68758;BME280;55747;51.998;4.466;2022-07-29T02:12:50;77989.59;;;-144.48;60.08
68758;BME280;55747;51.998;4.466;2022-07-29T02:15:16;77995.81;;;-144.48;60.20
68758;BME280;55747;51.998;4.466;2022-07-29T02:17:46;77993.75;;;-144.48;60.11
68758;BME280;55747;51.998;4.466;2022-07-29T02:20:13;77999.97;;;-144.48;60.41
68758;BME280;55747;51.998;4.466;2022-07-29T02:22:39;78004.13;;;-144.48;60.57
68758;BME280;55747;51.998;4.466;2022-07-29T02:25:07;78006.22;;;-144.48;60.69
68758;BME280;55747;51.998;4.466;2022-07-29T02:27:34;77999.97;;;-144.48;60.41
68758;BME280;55747;51.998;4.466;2022-07-29T02:30:02;78006.22;;;-144.48;60.52
68758;BME280;55747;51.998;4.466;2022-07-29T02:32:29;78010.38;;;-144.48;60.79
68758;BME280;55747;51.998;4.466;2022-07-29T02:34:56;78016.59;;;-144.48;60.76
68758;BME280;55747;51.998;4.466;2022-07-29T02:37:24;78012.44;;;-144.48;60.83
68758;BME280;55747;51.998;4.466;2022-07-29T02:39:52;78016.59;;;-144.48;60.80
68758;BME280;55747;51.998;4.466;2022-07-29T02:42:21;78014.53;;;-144.48;60.95
68758;BME280;55747;51.998;4.466;2022-07-29T02:44:48;78016.59;;;-144.48;60.93
68758;BME280;55747;51.998;4.466;2022-07-29T02:47:22;78020.75;;;-144.48;60.79
68758;BME280;55747;51.998;4.466;2022-07-29T02:50:00;78014.53;;;-144.48;60.91
68758;BME280;55747;51.998;4.466;2022-07-29T02:52:32;78014.53;;;-144.48;60.96
68758;BME280;55747;51.998;4.466;2022-07-29T02:55:03;78016.59;;;-144.48;61.09
68758;BME280;55747;51.998;4.466;2022-07-29T02:57:35;78031.16;;;-144.48;61.33
68758;BME280;55747;51.998;4.466;2022-07-29T03:00:06;78029.06;;;-144.48;61.39
68758;BME280;55747;51.998;4.466;2022-07-29T03:02:44;78027.00;;;-144.48;61.25
68758;BME280;55747;51.998;4.466;2022-07-29T03:05:20;78031.16;;;-144.48;61.50
68758;BME280;55747;51.998;4.466;2022-07-29T03:07:49;78031.16;;;-144.48;61.32
68758;BME280;55747;51.998;4.466;2022-07-29T03:10:16;78031.16;;;-144.48;61.36
68758;BME280;55747;51.998;4.466;2022-07-29T03:12:43;78041.56;;;-144.48;61.52
68758;BME280;55747;51.998;4.466;2022-07-29T03:15:09;78037.41;;;-144.48;61.44
68758;BME280;55747;51.998;4.466;2022-07-29T03:17:35;78043.63;;;-144.48;61.46
68758;BME280;55747;51.998;4.466;2022-07-29T03:20:02;78037.41;;;-144.48;61.46
68758;BME280;55747;51.998;4.466;2022-07-29T03:22:30;78045.72;;;-144.48;61.63
68758;BME280;55747;51.998;4.466;2022-07-29T03:24:55;78031.16;;;-144.48;61.56
68758;BME280;55747;51.998;4.466;2022-07-29T03:27:20;78033.22;;;-144.48;61.42
68758;BME280;55747;51.998;4.466;2022-07-29T03:29:46;78037.41;;;-144.48;61.55
68758;BME280;55747;51.998;4.466;2022-07-29T03:32:11;78035.31;;;-144.48;61.70
68758;BME280;55747;51.998;4.466;2022-07-29T03:34:37;78037.41;;;-144.48;61.83
68758;BME280;55747;51.998;4.466;2022-07-29T03:37:03;78045.72;;;-144.48;61.91
68758;BME280;55747;51.998;4.466;2022-07-29T03:39:31;78039.47;;;-144.48;61.88
68758;BME280;55747;51.998;4.466;2022-07-29T03:41:59;78039.47;;;-144.48;61.84
68758;BME280;55747;51.998;4.466;2022-07-29T03:44:26;78047.78;;;-144.48;61.99
68758;BME280;55747;51.998;4.466;2022-07-29T03:46:53;78039.47;;;-144.48;61.82
68758;BME280;55747;51.998;4.466;2022-07-29T03:49:21;78041.56;;;-144.48;61.80
68758;BME280;55747;51.998;4.466;2022-07-29T03:51:47;78039.47;;;-144.48;61.93
68758;BME280;55747;51.998;4.466;2022-07-29T03:54:12;78049.88;;;-144.48;61.97
68758;BME280;55747;51.998;4.466;2022-07-29T03:56:40;78047.78;;;-144.48;61.96
68758;BME280;55747;51.998;4.466;2022-07-29T03:59:07;78037.41;;;-144.48;61.90
68758;BME280;55747;51.998;4.466;2022-07-29T04:01:35;78041.56;;;-144.48;61.88
68758;BME280;55747;51.998;4.466;2022-07-29T04:04:02;78047.78;;;-144.48;61.91
68758;BME280;55747;51.998;4.466;2022-07-29T04:06:27;78045.72;;;-144.48;61.94
68758;BME280;55747;51.998;4.466;2022-07-29T04:08:52;78045.72;;;-144.48;61.96
68758;BME280;55747;51.998;4.466;2022-07-29T04:11:18;78049.88;;;-144.48;61.72
68758;BME280;55747;51.998;4.466;2022-07-29T04:13:43;78049.88;;;-144.48;61.94
68758;BME280;55747;51.998;4.466;2022-07-29T04:16:09;78056.09;;;-144.48;61.96
68758;BME280;55747;51.998;4.466;2022-07-29T04:18:34;78054.03;;;-144.48;61.91
68758;BME280;55747;51.998;4.466;2022-07-29T04:20:59;78051.94;;;-144.48;61.94
68758;BME280;55747;51.998;4.466;2022-07-29T04:23:26;78049.88;;;-144.48;61.84
68758;BME280;55747;51.998;4.466;2022-07-29T04:25:52;78047.78;;;-144.48;61.74
68758;BME280;55747;51.998;4.466;2022-07-29T04:28:17;78041.56;;;-144.48;61.46
68758;BME280;55747;51.998;4.466;2022-07-29T04:30:42;78039.47;;;-144.48;61.63
68758;BME280;55747;51.998;4.466;2022-07-29T04:33:07;78033.22;;;-144.48;61.61
68758;BME280;55747;51.998;4.466;2022-07-29T04:35:35;78033.22;;;-144.48;61.30
68758;BME280;55747;51.998;4.466;2022-07-29T04:38:01;78033.22;;;-144.48;61.41
68758;BME280;55747;51.998;4.466;2022-07-29T04:40:27;78037.41;;;-144.48;61.19
68758;BME280;55747;51.998;4.466;2022-07-29T04:42:53;78033.22;;;-144.48;61.13
68758;BME280;55747;51.998;4.466;2022-07-29T04:45:18;78039.47;;;-144.48;61.30
68758;BME280;55747;51.998;4.466;2022-07-29T04:47:43;78039.47;;;-144.48;61.22
68758;BME280;55747;51.998;4.466;2022-07-29T04:50:09;78035.31;;;-144.48;61.24
68758;BME280;55747;51.998;4.466;2022-07-29T04:52:35;78027.00;;;-144.48;60.98
68758;BME280;55747;51.998;4.466;2022-07-29T04:55:01;78022.84;;;-144.48;61.07
68758;BME280;55747;51.998;4.466;2022-07-29T04:57:26;78022.84;;;-144.48;61.06
68758;BME280;55747;51.998;4.466;2022-07-29T04:59:52;78027.00;;;-144.48;60.89
68758;BME280;55747;51.998;4.466;2022-07-29T05:02:17;78012.44;;;-144.48;60.61
68758;BME280;55747;51.998;4.466;2022-07-29T05:04:42;78006.22;;;-144.48;60.61
68758;BME280;55747;51.998;4.466;2022-07-29T05:07:08;77981.28;;;-144.48;59.75
68758;BME280;55747;51.998;4.466;2022-07-29T05:09:33;77921.00;;;-144.48;58.74
68758;BME280;55747;51.998;4.466;2022-07-29T05:11:58;77777.56;;;-144.48;55.24
68758;BME280;55747;51.998;4.466;2022-07-29T05:14:24;77760.94;;;-144.48;54.18
68758;BME280;55747;51.998;4.466;2022-07-29T05:16:49;77725.59;;;-144.48;53.37
68758;BME280;55747;51.998;4.466;2022-07-29T05:19:16;77679.88;;;-144.48;52.43
68758;BME280;55747;51.998;4.466;2022-07-29T05:21:42;77484.50;;;-144.48;48.72
68758;BME280;55747;51.998;4.466;2022-07-29T05:24:07;77343.19;;;-144.48;45.42
68758;BME280;55747;51.998;4.466;2022-07-29T05:26:33;77297.47;;;-144.48;44.46
68758;BME280;55747;51.998;4.466;2022-07-29T05:28:58;77164.47;;;-144.48;42.18
68758;BME280;55747;51.998;4.466;2022-07-29T05:31:23;77083.41;;;-144.48;40.96
68758;BME280;55747;51.998;4.466;2022-07-29T05:33:48;77012.75;;;-144.48;39.48
68758;BME280;55747;51.998;4.466;2022-07-29T05:36:14;77035.63;;;-144.48;39.97
68758;BME280;55747;51.998;4.466;2022-07-29T05:38:39;76962.88;;;-144.48;38.68
68758;BME280;55747;51.998;4.466;2022-07-29T05:41:05;77054.31;;;-144.48;39.69
68758;BME280;55747;51.998;4.466;2022-07-29T05:43:30;76952.50;;;-144.48;38.54
68758;BME280;55747;51.998;4.466;2022-07-29T05:45:56;77000.28;;;-144.48;38.46
68758;BME280;55747;51.998;4.466;2022-07-29T05:48:21;76967.03;;;-144.48;38.37
68758;BME280;55747;51.998;4.466;2022-07-29T05:50:47;77035.63;;;-144.48;39.14
68758;BME280;55747;51.998;4.466;2022-07-29T05:53:12;77156.16;;;-144.48;40.42
68758;BME280;55747;51.998;4.466;2022-07-29T05:55:37;77280.84;;;-144.48;42.31
68758;BME280;55747;51.998;4.466;2022-07-29T05:58:02;77118.75;;;-144.48;40.51
68758;BME280;55747;51.998;4.466;2022-07-29T06:00:28;76962.88;;;-144.48;38.05
68758;BME280;55747;51.998;4.466;2022-07-29T06:02:53;77002.38;;;-144.48;38.28
68758;BME280;55747;51.998;4.466;2022-07-29T06:05:18;77164.47;;;-144.48;40.03
68758;BME280;55747;51.998;4.466;2022-07-29T06:07:44;77328.63;;;-144.48;42.91
68758;BME280;55747;51.998;4.466;2022-07-29T06:10:09;77330.72;;;-144.48;43.76
68758;BME280;55747;51.998;4.466;2022-07-29T06:12:35;77168.63;;;-144.48;41.04
68758;BME280;55747;51.998;4.466;2022-07-29T06:15:00;77012.75;;;-144.48;38.93
68758;BME280;55747;51.998;4.466;2022-07-29T06:17:26;76960.81;;;-144.48;37.86
68758;BME280;55747;51.998;4.466;2022-07-29T06:19:51;77048.09;;;-144.48;38.77
68758;BME280;55747;51.998;4.466;2022-07-29T06:22:16;77193.56;;;-144.48;41.07
68758;BME280;55747;51.998;4.466;2022-07-29T06:24:42;77343.19;;;-144.48;43.41
68758;BME280;55747;51.998;4.466;2022-07-29T06:27:11;77395.16;;;-144.48;44.69
68758;BME280;55747;51.998;4.466;2022-07-29T06:29:37;77467.88;;;-144.48;45.84
68758;BME280;55747;51.998;4.466;2022-07-29T06:32:03;77469.97;;;-144.48;46.00
68758;BME280;55747;51.998;4.466;2022-07-29T06:34:29;77499.06;;;-144.48;46.64
68758;BME280;55747;51.998;4.466;2022-07-29T06:36:54;77521.91;;;-144.48;46.97
68758;BME280;55747;51.998;4.466;2022-07-29T06:39:20;77488.66;;;-144.48;46.76
68758;BME280;55747;51.998;4.466;2022-07-29T06:41:49;77266.28;;;-144.48;43.22
68758;BME280;55747;51.998;4.466;2022-07-29T06:44:16;77033.53;;;-144.48;39.86
68758;BME280;55747;51.998;4.466;2022-07-29T06:46:41;76877.69;;;-144.48;36.87
68758;BME280;55747;51.998;4.466;2022-07-29T06:49:07;76796.63;;;-144.48;36.10
68758;BME280;55747;51.998;4.466;2022-07-29T06:51:33;76711.44;;;-144.48;34.59
68758;BME280;55747;51.998;4.466;2022-07-29T06:53:58;76863.13;;;-144.48;36.53
68758;BME280;55747;51.998;4.466;2022-07-29T06:56:24;76717.69;;;-144.48;34.34
68758;BME280;55747;51.998;4.466;2022-07-29T06:58:50;76769.63;;;-144.48;35.32
68758;BME280;55747;51.998;4.466;2022-07-29T07:01:15;76886.00;;;-144.48;36.24
68758;BME280;55747;51.998;4.466;2022-07-29T07:03:40;77021.06;;;-144.48;37.82
68758;BME280;55747;51.998;4.466;2022-07-29T07:06:07;77164.47;;;-144.48;40.25
68758;BME280;55747;51.998;4.466;2022-07-29T07:08:32;77070.94;;;-144.48;38.94
68758;BME280;55747;51.998;4.466;2022-07-29T07:10:58;77172.78;;;-144.48;40.19
68758;BME280;55747;51.998;4.466;2022-07-29T07:13:23;77260.06;;;-144.48;41.66
68758;BME280;55747;51.998;4.466;2022-07-29T07:15:49;77297.47;;;-144.48;42.27
68758;BME280;55747;51.998;4.466;2022-07-29T07:18:15;77343.19;;;-144.48;43.08
68758;BME280;55747;51.998;4.466;2022-07-29T07:20:41;77384.75;;;-144.48;44.04
68758;BME280;55747;51.998;4.466;2022-07-29T07:23:07;77397.22;;;-144.48;43.99
68758;BME280;55747;51.998;4.466;2022-07-29T07:25:33;77399.31;;;-144.48;44.35
68758;BME280;55747;51.998;4.466;2022-07-29T07:27:58;77418.00;;;-144.48;44.30
68758;BME280;55747;51.998;4.466;2022-07-29T07:30:24;77393.06;;;-144.48;43.95
68758;BME280;55747;51.998;4.466;2022-07-29T07:32:49;77376.44;;;-144.48;43.93
68758;BME280;55747;51.998;4.466;2022-07-29T07:35:15;77366.06;;;-144.48;43.70
68758;BME280;55747;51.998;4.466;2022-07-29T07:37:40;77060.56;;;-144.48;39.74
68758;BME280;55747;51.998;4.466;2022-07-29T07:40:07;76946.25;;;-144.48;37.81
68758;BME280;55747;51.998;4.466;2022-07-29T07:42:33;76910.94;;;-144.48;37.27
68758;BME280;55747;51.998;4.466;2022-07-29T07:44:58;76825.72;;;-144.48;35.96
68758;BME280;55747;51.998;4.466;2022-07-29T07:47:24;76757.16;;;-144.48;35.31
68758;BME280;55747;51.998;4.466;2022-07-29T07:49:50;76682.34;;;-144.48;33.93
68758;BME280;55747;51.998;4.466;2022-07-29T07:52:16;76765.47;;;-144.48;34.70
68758;BME280;55747;51.998;4.466;2022-07-29T07:54:42;76877.69;;;-144.48;36.35
68758;BME280;55747;51.998;4.466;2022-07-29T07:57:09;77021.06;;;-144.48;38.15
68758;BME280;55747;51.998;4.466;2022-07-29T07:59:34;77122.91;;;-144.48;39.45
68758;BME280;55747;51.998;4.466;2022-07-29T08:01:59;77170.69;;;-144.48;41.09
68758;BME280;55747;51.998;4.466;2022-07-29T08:04:26;77201.88;;;-144.48;41.73
68758;BME280;55747;51.998;4.466;2022-07-29T08:06:51;77145.75;;;-144.48;41.02
68758;BME280;55747;51.998;4.466;2022-07-29T08:09:19;76748.84;;;-144.48;35.92
68758;BME280;55747;51.998;4.466;2022-07-29T08:11:45;76422.63;;;-144.48;32.43
68758;BME280;55747;51.998;4.466;2022-07-29T08:14:10;76374.81;;;-144.48;31.35
68758;BME280;55747;51.998;4.466;2022-07-29T08:16:35;76225.22;;;-144.48;29.92
68758;BME280;55747;51.998;4.466;2022-07-29T08:19:00;76208.59;;;-144.48;30.46
68758;BME280;55747;51.998;4.466;2022-07-29T08:21:26;76096.41;;;-144.48;28.68
68758;BME280;55747;51.998;4.466;2022-07-29T08:23:51;76017.47;;;-144.48;28.42
68758;BME280;55747;51.998;4.466;2022-07-29T08:26:41;76156.66;;;-144.48;28.95
68758;BME280;55747;51.998;4.466;2022-07-29T08:29:06;76219.00;;;-144.48;29.63
68758;BME280;55747;51.998;4.466;2022-07-29T08:31:31;76418.47;;;-144.48;31.17
68758;BME280;55747;51.998;4.466;2022-07-29T08:33:57;76493.25;;;-144.48;32.21
68758;BME280;55747;51.998;4.466;2022-07-29T08:36:25;76297.94;;;-144.48;31.14
68758;BME280;55747;51.998;4.466;2022-07-29T08:38:50;76131.72;;;-144.48;29.56
68758;BME280;55747;51.998;4.466;2022-07-29T08:41:16;76092.25;;;-144.48;28.56
68758;BME280;55747;51.998;4.466;2022-07-29T08:43:44;76214.84;;;-144.48;29.20
68758;BME280;55747;51.998;4.466;2022-07-29T08:46:09;76202.38;;;-144.48;29.49
68758;BME280;55747;51.998;4.466;2022-07-29T08:48:35;76441.31;;;-144.48;31.38
68758;BME280;55747;51.998;4.466;2022-07-29T08:51:01;76659.50;;;-144.48;33.67
68758;BME280;55747;51.998;4.466;2022-07-29T08:53:28;76732.22;;;-144.48;34.64
68758;BME280;55747;51.998;4.466;2022-07-29T08:55:54;76705.22;;;-144.48;35.36
68758;BME280;55747;51.998;4.466;2022-07-29T08:58:20;76611.69;;;-144.48;33.65
68758;BME280;55747;51.998;4.466;2022-07-29T09:00:54;76495.34;;;-144.48;32.67
68758;BME280;55747;51.998;4.466;2022-07-29T09:03:23;76455.88;;;-144.48;32.25
68758;BME280;55747;51.998;4.466;2022-07-29T09:05:49;76422.63;;;-144.48;32.23
68758;BME280;55747;51.998;4.466;2022-07-29T09:08:16;76453.78;;;-144.48;32.82
68758;BME280;55747;51.998;4.466;2022-07-29T09:10:41;76447.56;;;-144.48;32.73
68758;BME280;55747;51.998;4.466;2022-07-29T09:13:07;76543.13;;;-144.48;33.74
68758;BME280;55747;51.998;4.466;2022-07-29T09:15:32;76447.56;;;-144.48;32.97
68758;BME280;55747;51.998;4.466;2022-07-29T09:17:58;76293.78;;;-144.48;31.77
68758;BME280;55747;51.998;4.466;2022-07-29T09:20:25;76038.25;;;-144.48;29.55
68758;BME280;55747;51.998;4.466;2022-07-29T09:22:52;75869.97;;;-144.48;28.34
68758;BME280;55747;51.998;4.466;2022-07-29T09:25:34;75809.72;;;-144.48;27.42
68758;BME280;55747;51.998;4.466;2022-07-29T09:28:16;76000.84;;;-144.48;28.34
68758;BME280;55747;51.998;4.466;2022-07-29T09:30:58;76156.66;;;-144.48;30.05
68758;BME280;55747;51.998;4.466;2022-07-29T09:33:31;75998.78;;;-144.48;28.43
68758;BME280;55747;51.998;4.466;2022-07-29T09:36:22;76032.00;;;-144.48;28.53
68758;BME280;55747;51.998;4.466;2022-07-29T09:38:57;76050.72;;;-144.48;28.29
68758;BME280;55747;51.998;4.466;2022-07-29T09:41:23;76275.09;;;-144.48;30.45
68758;BME280;55747;51.998;4.466;2022-07-29T09:43:55;76229.38;;;-144.48;29.98
68758;BME280;55747;51.998;4.466;2022-07-29T09:46:21;76333.28;;;-144.48;30.98
68758;BME280;55747;51.998;4.466;2022-07-29T09:49:06;76324.97;;;-144.48;30.58
68758;BME280;55747;51.998;4.466;2022-07-29T09:51:34;76372.75;;;-144.48;31.03
68758;BME280;55747;51.998;4.466;2022-07-29T09:54:00;76368.59;;;-144.48;31.20
68758;BME280;55747;51.998;4.466;2022-07-29T09:56:41;76258.47;;;-144.48;30.23
68758;BME280;55747;51.998;4.466;2022-07-29T09:59:08;76094.34;;;-144.48;30.01
68758;BME280;55747;51.998;4.466;2022-07-29T10:01:34;76067.31;;;-144.48;28.17
68758;BME280;55747;51.998;4.466;2022-07-29T10:04:01;75938.53;;;-144.48;27.37
68758;BME280;55747;51.998;4.466;2022-07-29T10:06:26;75988.38;;;-144.48;27.86
68758;BME280;55747;51.998;4.466;2022-07-29T10:08:51;76154.59;;;-144.48;29.38
68758;BME280;55747;51.998;4.466;2022-07-29T10:11:18;76106.81;;;-144.48;28.92
68758;BME280;55747;51.998;4.466;2022-07-29T10:13:46;76054.88;;;-144.48;28.86
68758;BME280;55747;51.998;4.466;2022-07-29T10:16:12;75915.66;;;-144.48;27.74
68758;BME280;55747;51.998;4.466;2022-07-29T10:18:40;76029.94;;;-144.48;28.36
68758;BME280;55747;51.998;4.466;2022-07-29T10:21:06;76063.19;;;-144.48;28.71
68758;BME280;55747;51.998;4.466;2022-07-29T10:23:33;76181.59;;;-144.48;29.61
68758;BME280;55747;51.998;4.466;2022-07-29T10:25:59;76110.97;;;-144.48;28.93
68758;BME280;55747;51.998;4.466;2022-07-29T10:28:25;76113.03;;;-144.48;28.64
68758;BME280;55747;51.998;4.466;2022-07-29T10:30:52;76086.03;;;-144.48;29.24
68758;BME280;55747;51.998;4.466;2022-07-29T10:33:44;75888.66;;;-144.48;27.57
68758;BME280;55747;51.998;4.466;2022-07-29T10:39:38;75876.19;;;-144.48;28.11
68758;BME280;55747;51.998;4.466;2022-07-29T10:42:16;75878.28;;;-144.48;26.59
68758;BME280;55747;51.998;4.466;2022-07-29T10:44:43;75874.13;;;-144.48;27.16
68758;BME280;55747;51.998;4.466;2022-07-29T10:47:19;75865.81;;;-144.48;26.37
68758;BME280;55747;51.998;4.466;2022-07-29T10:52:21;75818.03;;;-144.48;26.45
68758;BME280;55747;51.998;4.466;2022-07-29T10:54:49;75865.81;;;-144.48;26.82
68758;BME280;55747;51.998;4.466;2022-07-29T10:57:23;75788.94;;;-144.48;27.38
68758;BME280;55747;51.998;4.466;2022-07-29T11:07:23;75780.63;;;-144.48;25.61
68758;BME280;55747;51.998;4.466;2022-07-29T11:15:26;76127.59;;;-144.48;27.91
68758;BME280;55747;51.998;4.466;2022-07-29T11:20:44;75826.34;;;-144.48;24.94
68758;BME280;55747;51.998;4.466;2022-07-29T11:23:36;75784.78;;;-144.48;26.11
68758;BME280;55747;51.998;4.466;2022-07-29T11:26:18;75865.81;;;-144.48;25.75
68758;BME280;55747;51.998;4.466;2022-07-29T11:31:31;76042.41;;;-144.48;26.75
68758;BME280;55747;51.998;4.466;2022-07-29T11:34:49;76083.94;;;-144.48;27.85
68758;BME280;55747;51.998;4.466;2022-07-29T11:47:25;75880.34;;;-144.48;25.71
68758;BME280;55747;51.998;4.466;2022-07-29T11:49:53;75882.44;;;-144.48;25.44
68758;BME280;55747;51.998;4.466;2022-07-29T11:52:19;75859.56;;;-144.48;25.61
68758;BME280;55747;51.998;4.466;2022-07-29T11:54:47;75861.66;;;-144.48;25.28
68758;BME280;55747;51.998;4.466;2022-07-29T11:57:13;76023.69;;;-144.48;26.61
68758;BME280;55747;51.998;4.466;2022-07-29T11:59:41;76083.94;;;-144.48;26.36
68758;BME280;55747;51.998;4.466;2022-07-29T12:02:07;76137.97;;;-144.48;28.11
68758;BME280;55747;51.998;4.466;2022-07-29T12:04:33;76046.56;;;-144.48;27.78
68758;BME280;55747;51.998;4.466;2022-07-29T12:07:00;75986.31;;;-144.48;26.53
68758;BME280;55747;51.998;4.466;2022-07-29T12:09:28;76038.25;;;-144.48;26.82
68758;BME280;55747;51.998;4.466;2022-07-29T12:11:57;76023.69;;;-144.48;27.55
68758;BME280;55747;51.998;4.466;2022-07-29T12:14:33;75853.34;;;-144.48;26.41
68758;BME280;55747;51.998;4.466;2022-07-29T12:16:59;76009.16;;;-144.48;26.76
68758;BME280;55747;51.998;4.466;2022-07-29T12:19:25;76038.25;;;-144.48;27.06
68758;BME280;55747;51.998;4.466;2022-07-29T12:21:55;75822.19;;;-144.48;26.38
68758;BME280;55747;51.998;4.466;2022-07-29T12:24:21;75845.03;;;-144.48;26.56
68758;BME280;55747;51.998;4.466;2022-07-29T12:27:04;76150.44;;;-144.48;29.52
68758;BME280;55747;51.998;4.466;2022-07-29T12:29:29;76225.22;;;-144.48;29.69
68758;BME280;55747;51.998;4.466;2022-07-29T12:31:55;76007.06;;;-144.48;28.47
68758;BME280;55747;51.998;4.466;2022-07-29T12:34:24;75799.31;;;-144.48;27.44
68758;BME280;55747;51.998;4.466;2022-07-29T12:36:51;75655.97;;;-144.48;26.02
68758;BME280;55747;51.998;4.466;2022-07-29T12:39:18;75826.34;;;-144.48;26.10
68758;BME280;55747;51.998;4.466;2022-07-29T12:41:44;75761.94;;;-144.48;26.11
68758;BME280;55747;51.998;4.466;2022-07-29T12:44:11;75712.06;;;-144.48;25.90
68758;BME280;55747;51.998;4.466;2022-07-29T12:46:36;75597.81;;;-144.48;24.96
68758;BME280;55747;51.998;4.466;2022-07-29T12:49:02;75832.56;;;-144.48;26.35
68758;BME280;55747;51.998;4.466;2022-07-29T12:51:39;75822.19;;;-144.48;27.03
68758;BME280;55747;51.998;4.466;2022-07-29T12:54:10;75905.28;;;-144.48;27.45
68758;BME280;55747;51.998;4.466;2022-07-29T12:56:36;76023.69;;;-144.48;28.03
68758;BME280;55747;51.998;4.466;2022-07-29T12:59:31;75919.81;;;-144.48;26.90
68758;BME280;55747;51.998;4.466;2022-07-29T13:01:56;76046.56;;;-144.48;28.14
68758;BME280;55747;51.998;4.466;2022-07-29T13:04:33;76092.25;;;-144.48;28.66
68758;BME280;55747;51.998;4.466;2022-07-29T13:07:06;76135.88;;;-144.48;29.09
68758;BME280;55747;51.998;4.466;2022-07-29T13:12:05;76372.75;;;-144.48;30.43
68758;BME280;55747;51.998;4.466;2022-07-29T13:14:33;76447.56;;;-144.48;31.73
68758;BME280;55747;51.998;4.466;2022-07-29T13:17:16;76322.88;;;-144.48;29.78
68758;BME280;55747;51.998;4.466;2022-07-29T13:19:53;76241.84;;;-144.48;29.09
68758;BME280;55747;51.998;4.466;2022-07-29T13:22:29;76243.94;;;-144.48;29.21
68758;BME280;55747;51.998;4.466;2022-07-29T13:24:57;76023.69;;;-144.48;28.36